Time;durP1;ratioP1;P1;durP2;ratioP2;P2;SDS_P1;SDS_P2;PMS_P1;PMS_P2;Temp;Humidity;BMP_temperature;BMP_pressure;BME280_temperature;BME280_humidity;BME280_pressure;Samples;Min_cycle;Max_cycle;Signal;HPM_P1;HPM_P2
2023/02/02 00:00:54;;;;;;;9.30;3.70;;;;;;;1.61;100.00;97134.83;106285;1255;60514;-77
2023/02/02 00:03:32;;;;;;;7.80;3.60;;;;;;;1.57;100.00;97134.42;106426;1251;71044;-79
2023/02/02 00:05:58;;;;;;;8.40;4.40;;;;;;;1.53;100.00;97131.62;106338;1251;60450;-79
2023/02/02 00:08:25;;;;;;;7.10;3.60;;;;;;;1.49;100.00;97134.46;106317;1251;60468;-77
2023/02/02 00:10:51;;;;;;;5.50;3.60;;;;;;;1.46;100.00;97132.42;106250;1254;60554;-77
2023/02/02 00:13:17;;;;;;;10.00;4.20;;;;;;;1.42;100.00;97133.21;106300;1254;60446;-77
2023/02/02 00:15:44;;;;;;;8.70;4.50;;;;;;;1.39;100.00;97133.81;106281;1253;60469;-78
2023/02/02 00:18:10;;;;;;;7.10;4.80;;;;;;;1.35;100.00;97138.43;106275;1254;60549;-80
2023/02/02 00:20:36;;;;;;;4.90;3.20;;;;;;;1.33;100.00;97141.23;106280;1253;61036;-79
2023/02/02 00:23:03;;;;;;;6.90;3.80;;;;;;;1.29;100.00;97143.21;106107;1254;60420;-76
2023/02/02 00:25:29;;;;;;;9.00;3.90;;;;;;;1.27;100.00;97144.05;106257;1254;60562;-78
2023/02/02 00:27:56;;;;;;;6.70;3.70;;;;;;;1.24;100.00;97140.81;106028;1255;60449;-81
2023/02/02 00:30:22;;;;;;;4.50;2.40;;;;;;;1.21;100.00;97135.64;106225;1256;60465;-76
2023/02/02 00:32:51;;;;;;;5.10;2.80;;;;;;;1.15;100.00;97144.09;106246;1254;60530;-78
2023/02/02 00:35:18;;;;;;;3.50;2.40;;;;;;;1.11;100.00;97137.77;106147;1256;60515;-77
2023/02/02 00:37:44;;;;;;;5.10;2.30;;;;;;;1.05;100.00;97136.23;106253;1253;73745;-78
2023/02/02 00:40:10;;;;;;;1.90;1.70;;;;;;;1.01;100.00;97136.48;106298;1251;61357;-78
2023/02/02 00:42:37;;;;;;;4.10;2.50;;;;;;;0.99;100.00;97130.98;106296;1251;60576;-77
2023/02/02 00:45:16;;;;;;;3.00;1.70;;;;;;;0.98;100.00;97141.86;106294;1251;60427;-76
2023/02/02 00:47:45;;;;;;;2.10;1.80;;;;;;;0.99;100.00;97147.10;106290;1251;60353;-76
2023/02/02 00:50:18;;;;;;;3.90;2.80;;;;;;;1.01;100.00;97138.05;106327;1251;72591;-78
2023/02/02 00:52:45;;;;;;;4.20;2.30;;;;;;;1.01;100.00;97139.61;106314;1255;71045;-78
2023/02/02 00:55:12;;;;;;;3.00;2.10;;;;;;;1.02;100.00;97141.39;106350;1251;72524;-76
2023/02/02 00:57:40;;;;;;;3.40;2.20;;;;;;;1.03;100.00;97140.14;106271;1251;60290;-76
2023/02/02 01:00:07;;;;;;;3.00;2.30;;;;;;;1.03;100.00;97140.94;106348;1251;60506;-76
2023/02/02 01:02:34;;;;;;;3.30;1.90;;;;;;;1.02;100.00;97144.70;106302;1251;73726;-78
2023/02/02 01:05:01;;;;;;;2.90;1.10;;;;;;;1.03;100.00;97140.57;106325;1251;62276;-77
2023/02/02 01:07:27;;;;;;;3.90;1.80;;;;;;;1.05;100.00;97145.03;106286;1251;71977;-78
2023/02/02 01:09:53;;;;;;;3.70;1.90;;;;;;;1.07;100.00;97140.63;106265;1254;60450;-78
2023/02/02 01:12:20;;;;;;;2.80;1.80;;;;;;;1.07;100.00;97143.46;106383;1253;60542;-76
2023/02/02 01:14:46;;;;;;;1.50;1.00;;;;;;;1.06;100.00;97155.84;106266;1254;60489;-78
2023/02/02 01:17:13;;;;;;;1.70;1.00;;;;;;;1.04;100.00;97152.39;106275;1254;60530;-76
2023/02/02 01:19:40;;;;;;;2.60;1.50;;;;;;;1.04;100.00;97158.93;106265;1252;60446;-78
2023/02/02 01:22:07;;;;;;;1.60;1.00;;;;;;;1.01;100.00;97152.80;106240;1253;60294;-78
2023/02/02 01:24:33;;;;;;;2.00;1.40;;;;;;;0.98;100.00;97150.92;106241;1252;60441;-76
2023/02/02 01:27:00;;;;;;;3.40;2.40;;;;;;;0.95;100.00;97161.02;106379;1254;59939;-79
2023/02/02 01:29:26;;;;;;;2.90;2.10;;;;;;;0.93;100.00;97173.20;106291;1254;60417;-77
2023/02/02 01:31:52;;;;;;;5.20;3.10;;;;;;;0.89;100.00;97177.81;106230;1254;60504;-77
2023/02/02 01:34:19;;;;;;;3.00;2.00;;;;;;;0.83;100.00;97178.17;106091;1258;60703;-76
2023/02/02 01:36:45;;;;;;;2.20;1.70;;;;;;;0.80;100.00;97179.30;106301;1254;60408;-77
2023/02/02 01:39:11;;;;;;;2.40;1.50;;;;;;;0.77;100.00;97184.00;106295;1251;60529;-76
2023/02/02 01:41:38;;;;;;;1.90;1.30;;;;;;;0.75;100.00;97181.12;106352;1256;60525;-76
2023/02/02 01:44:05;;;;;;;2.80;1.30;;;;;;;0.74;100.00;97185.09;106309;1256;60662;-78
2023/02/02 01:46:34;;;;;;;3.70;1.40;;;;;;;0.74;100.00;97188.69;106331;1255;60527;-76
2023/02/02 01:49:07;;;;;;;2.90;2.00;;;;;;;0.75;100.00;97187.04;106343;1256;60416;-76
2023/02/02 01:51:51;;;;;;;2.80;2.10;;;;;;;0.75;100.00;97188.70;106283;1256;73708;-78
2023/02/02 01:54:29;;;;;;;2.90;1.40;;;;;;;0.77;100.00;97189.13;106305;1254;71483;-78
2023/02/02 01:57:23;;;;;;;7.00;3.80;;;;;;;0.79;100.00;97186.23;106230;1256;71564;-78
2023/02/02 01:59:49;;;;;;;2.60;1.80;;;;;;;0.80;100.00;97185.17;106407;1256;60518;-78
2023/02/02 02:02:16;;;;;;;3.90;1.30;;;;;;;0.81;100.00;97191.88;106317;1251;60638;-78
2023/02/02 02:04:42;;;;;;;3.10;2.10;;;;;;;0.86;100.00;97201.97;106275;1251;60555;-78
2023/02/02 02:07:09;;;;;;;1.30;1.00;;;;;;;0.88;100.00;97206.45;106286;1251;60532;-78
2023/02/02 02:09:35;;;;;;;4.60;2.00;;;;;;;0.89;100.00;97201.61;106155;1257;60469;-76
2023/02/02 02:12:01;;;;;;;2.20;1.10;;;;;;;0.89;100.00;97203.05;106275;1256;60482;-79
2023/02/02 02:17:39;;;;;;;3.30;1.40;;;;;;;0.85;100.00;97214.86;106080;1252;73112;-77
2023/02/02 02:27:02;;;;;;;4.90;2.20;;;;;;;0.81;100.00;97226.10;106330;1256;60402;-80
2023/02/02 02:29:37;;;;;;;4.10;1.60;;;;;;;0.86;100.00;97218.95;106280;1254;60329;-77
2023/02/02 02:32:18;;;;;;;3.60;1.60;;;;;;;0.92;100.00;97226.36;106273;1256;73776;-78
2023/02/02 02:34:47;;;;;;;3.50;1.50;;;;;;;0.95;100.00;97226.55;106248;1252;70981;-79
2023/02/02 02:37:26;;;;;;;;;;;;;;;0.98;100.00;97220.83;106289;1254;72543;-79
2023/02/02 02:40:02;;;;;;;3.10;1.70;;;;;;;1.03;100.00;97221.05;106075;1251;60405;-79
2023/02/02 02:42:30;;;;;;;7.70;2.10;;;;;;;1.06;100.00;97225.59;106330;1256;60350;-77
2023/02/02 02:44:56;;;;;;;4.80;2.40;;;;;;;1.09;100.00;97226.05;106201;1254;73714;-79
2023/02/02 02:47:23;;;;;;;7.00;3.80;;;;;;;1.12;100.00;97233.83;106153;1259;60526;-77
2023/02/02 02:49:49;;;;;;;13.00;2.70;;;;;;;1.17;100.00;97235.64;106330;1251;60558;-79
2023/02/02 02:52:15;;;;;;;3.20;1.90;;;;;;;1.20;100.00;97239.94;106299;1251;60567;-78
2023/02/02 02:54:48;;;;;;;8.40;3.00;;;;;;;1.24;100.00;97236.11;106188;1251;60546;-79
2023/02/02 02:57:26;;;;;;;6.30;2.30;;;;;;;1.25;100.00;97236.45;106142;1251;73919;-77
2023/02/02 03:00:03;;;;;;;7.20;2.70;;;;;;;1.27;100.00;97235.19;106409;1255;69940;-79
2023/02/02 03:02:33;;;;;;;7.60;2.20;;;;;;;1.29;100.00;97235.52;106313;1251;72573;-79
2023/02/02 03:05:05;;;;;;;6.50;2.10;;;;;;;1.31;100.00;97238.10;106290;1251;61568;-79
2023/02/02 03:07:36;;;;;;;7.30;2.10;;;;;;;1.33;100.00;97237.64;106306;1251;60536;-78
2023/02/02 03:10:03;;;;;;;5.90;1.90;;;;;;;1.36;100.00;97245.87;106292;1254;74421;-77
2023/02/02 03:12:30;;;;;;;10.40;1.60;;;;;;;1.38;100.00;97250.20;105939;1254;68923;-77
2023/02/02 03:14:56;;;;;;;7.60;2.90;;;;;;;1.40;100.00;97249.64;106241;1252;60537;-79
2023/02/02 03:17:22;;;;;;;6.00;2.20;;;;;;;1.42;100.00;97248.44;106275;1255;60470;-79
2023/02/02 03:19:49;;;;;;;5.90;1.90;;;;;;;1.43;100.00;97251.92;106309;1253;61034;-77
2023/02/02 03:22:15;;;;;;;4.10;2.90;;;;;;;1.50;100.00;97256.81;106282;1254;60546;-79
2023/02/02 03:24:42;;;;;;;10.50;3.20;;;;;;;1.50;100.00;97260.05;106275;1254;60524;-77
2023/02/02 03:27:08;;;;;;;5.80;3.60;;;;;;;1.50;100.00;97258.98;106260;1252;60928;-77
2023/02/02 03:29:35;;;;;;;7.50;2.30;;;;;;;1.52;100.00;97260.52;106283;1256;60559;-77
2023/02/02 03:32:01;;;;;;;10.60;2.90;;;;;;;1.52;100.00;97264.04;106119;1254;60623;-77
2023/02/02 03:34:28;;;;;;;10.30;3.50;;;;;;;1.52;100.00;97268.10;106259;1253;60793;-77
2023/02/02 03:36:54;;;;;;;7.40;2.50;;;;;;;1.55;100.00;97272.83;106241;1254;60452;-78
2023/02/02 03:39:21;;;;;;;4.00;2.10;;;;;;;1.58;100.00;97271.53;105998;1251;60523;-78
2023/02/02 03:41:47;;;;;;;9.00;2.20;;;;;;;1.61;100.00;97273.98;106310;1256;60555;-79
2023/02/02 03:44:14;;;;;;;6.70;1.80;;;;;;;1.62;100.00;97273.46;106322;1256;59225;-77
2023/02/02 03:46:40;;;;;;;8.20;3.30;;;;;;;1.63;100.00;97270.34;106424;1255;60545;-79
2023/02/02 03:49:07;;;;;;;14.20;12.10;;;;;;;1.63;100.00;97272.80;106320;1254;60507;-79
2023/02/02 03:51:33;;;;;;;12.60;2.90;;;;;;;1.63;100.00;97271.48;106282;1256;60440;-79
2023/02/02 03:54:00;;;;;;;8.40;3.40;;;;;;;1.68;100.00;97273.78;106309;1251;60471;-79
2023/02/02 03:56:26;;;;;;;12.00;2.50;;;;;;;1.69;100.00;97284.60;106302;1251;60507;-78
2023/02/02 03:58:52;;;;;;;9.80;2.40;;;;;;;1.68;100.00;97277.09;106362;1251;60462;-79
2023/02/02 04:01:26;;;;;;;8.80;3.30;;;;;;;1.70;100.00;97279.68;106189;1256;160909;-77
2023/02/02 04:03:53;;;;;;;12.00;2.90;;;;;;;1.69;100.00;97275.19;106337;1251;72008;-77
2023/02/02 04:06:20;;;;;;;10.30;2.30;;;;;;;1.68;100.00;97283.35;106163;1254;60217;-79
2023/02/02 04:08:47;;;;;;;6.30;2.00;;;;;;;1.68;100.00;97277.85;106356;1257;60417;-79
2023/02/02 04:11:13;;;;;;;9.00;6.70;;;;;;;1.70;100.00;97280.50;105984;1259;61562;-79
2023/02/02 04:13:42;;;;;;;11.80;6.00;;;;;;;1.70;100.00;97276.11;106270;1254;60444;-79
2023/02/02 04:16:09;;;;;;;6.40;3.10;;;;;;;1.70;100.00;97280.16;106234;1254;71460;-77
2023/02/02 04:18:38;;;;;;;9.00;3.30;;;;;;;1.71;100.00;97277.04;106101;1254;60498;-77
2023/02/02 04:21:05;;;;;;;10.10;2.40;;;;;;;1.73;100.00;97279.27;106036;1252;60343;-77
2023/02/02 04:23:31;;;;;;;10.50;2.50;;;;;;;1.75;100.00;97273.95;106341;1254;73724;-77
2023/02/02 04:25:58;;;;;;;8.10;3.50;;;;;;;1.75;100.00;97278.92;106270;1254;60370;-80
2023/02/02 04:28:25;;;;;;;8.70;3.00;;;;;;;1.73;100.00;97281.95;106404;1253;60382;-79
2023/02/02 04:30:52;;;;;;;14.70;3.40;;;;;;;1.72;100.00;97283.64;106284;1254;60421;-77
2023/02/02 04:33:20;;;;;;;8.60;2.00;;;;;;;1.72;100.00;97281.34;106228;1252;60338;-79
2023/02/02 04:35:46;;;;;;;9.70;2.60;;;;;;;1.72;100.00;97280.64;106279;1253;73737;-77
2023/02/02 04:38:13;;;;;;;7.80;2.30;;;;;;;1.71;100.00;97286.41;106259;1252;60618;-79
2023/02/02 04:40:40;;;;;;;9.80;2.50;;;;;;;1.72;100.00;97281.88;106164;1253;71530;-79
2023/02/02 04:43:07;;;;;;;7.70;2.10;;;;;;;1.71;100.00;97287.16;106302;1251;60447;-77
2023/02/02 04:45:33;;;;;;;14.50;3.40;;;;;;;1.71;100.00;97286.95;106454;1251;60338;-77
2023/02/02 04:48:00;;;;;;;16.50;5.90;;;;;;;1.70;100.00;97287.28;106359;1251;72604;-79
2023/02/02 04:50:26;;;;;;;12.70;3.70;;;;;;;1.69;100.00;97290.46;106321;1251;60536;-79
2023/02/02 04:52:52;;;;;;;12.90;3.90;;;;;;;1.69;100.00;97287.59;106289;1252;60606;-77
2023/02/02 04:55:19;;;;;;;8.00;2.70;;;;;;;1.70;100.00;97283.38;106327;1254;60600;-79
2023/02/02 04:57:45;;;;;;;8.00;2.80;;;;;;;1.71;100.00;97286.33;106281;1251;60533;-77
2023/02/02 05:00:12;;;;;;;14.10;3.70;;;;;;;1.74;100.00;97281.16;106304;1251;60478;-79
2023/02/02 05:02:39;;;;;;;11.30;3.70;;;;;;;1.75;100.00;97286.73;106304;1251;60651;-79
2023/02/02 05:05:07;;;;;;;10.30;3.10;;;;;;;1.76;100.00;97286.59;106284;1251;60431;-78
2023/02/02 05:07:33;;;;;;;13.60;5.30;;;;;;;1.77;100.00;97292.59;106329;1251;60459;-79
2023/02/02 05:09:59;;;;;;;9.50;2.10;;;;;;;1.78;100.00;97291.47;106311;1257;60430;-81
2023/02/02 05:12:26;;;;;;;6.30;2.90;;;;;;;1.77;100.00;97287.71;106259;1253;61551;-77
2023/02/02 05:14:52;;;;;;;9.00;4.20;;;;;;;1.78;100.00;97285.22;106281;1254;60542;-77
2023/02/02 05:17:19;;;;;;;13.30;4.50;;;;;;;1.80;100.00;97289.90;106291;1253;60428;-79
2023/02/02 05:19:45;;;;;;;6.70;3.80;;;;;;;1.80;100.00;97288.85;106255;1254;60505;-77
2023/02/02 05:22:11;;;;;;;8.80;2.60;;;;;;;1.81;100.00;97290.00;106286;1252;62059;-79
2023/02/02 05:24:38;;;;;;;7.70;2.70;;;;;;;1.80;100.00;97292.81;106301;1254;60443;-80
2023/02/02 05:27:04;;;;;;;13.70;3.20;;;;;;;1.78;100.00;97293.89;106290;1253;60425;-79
2023/02/02 05:29:31;;;;;;;10.00;4.10;;;;;;;1.75;100.00;97295.08;106286;1254;60549;-77
2023/02/02 05:31:57;;;;;;;14.20;4.60;;;;;;;1.71;100.00;97297.19;106251;1254;60472;-78
2023/02/02 05:34:23;;;;;;;11.30;2.90;;;;;;;1.66;100.00;97288.66;106236;1257;60584;-79
2023/02/02 05:36:50;;;;;;;8.20;2.70;;;;;;;1.60;100.00;97297.00;106223;1252;60474;-79
2023/02/02 05:39:16;;;;;;;8.70;2.00;;;;;;;1.57;100.00;97296.84;106285;1251;60431;-77
2023/02/02 05:41:42;;;;;;;10.20;2.70;;;;;;;1.54;100.00;97298.53;106270;1255;60540;-79
2023/02/02 05:44:11;;;;;;;12.80;3.40;;;;;;;1.51;100.00;97295.59;106261;1254;60532;-77
2023/02/02 05:46:37;;;;;;;10.50;2.90;;;;;;;1.50;100.00;97293.70;106270;1253;60425;-77
2023/02/02 05:49:04;;;;;;;13.80;4.30;;;;;;;1.47;100.00;97291.96;106326;1253;60463;-79
2023/02/02 05:51:31;;;;;;;11.00;4.90;;;;;;;1.45;100.00;97294.10;106310;1254;60482;-80
2023/02/02 05:53:58;;;;;;;17.20;6.80;;;;;;;1.44;100.00;97292.35;106066;1258;71851;-79
2023/02/02 05:56:24;;;;;;;14.10;5.20;;;;;;;1.43;100.00;97294.42;106396;1251;60474;-77
2023/02/02 05:58:51;;;;;;;15.40;5.80;;;;;;;1.42;100.00;97292.18;106355;1251;60425;-77
2023/02/02 06:01:17;;;;;;;16.10;7.70;;;;;;;1.42;100.00;97298.15;106270;1254;60451;-79
2023/02/02 06:03:44;;;;;;;13.50;5.80;;;;;;;1.43;100.00;97298.27;106288;1251;59262;-79
2023/02/02 06:06:10;;;;;;;13.40;5.30;;;;;;;1.43;100.00;97298.05;106296;1251;60535;-76
2023/02/02 06:08:36;;;;;;;15.10;7.10;;;;;;;1.43;100.00;97298.12;106228;1254;60532;-77
2023/02/02 06:11:10;;;;;;;12.10;5.30;;;;;;;1.43;100.00;97300.46;106293;1256;60522;-79
2023/02/02 06:13:36;;;;;;;21.50;7.20;;;;;;;1.44;100.00;97297.74;106340;1251;73716;-76
2023/02/02 06:16:03;;;;;;;8.20;4.20;;;;;;;1.44;100.00;97299.08;106305;1251;70035;-78
2023/02/02 06:18:29;;;;;;;9.40;3.60;;;;;;;1.44;100.00;97303.57;106539;1251;72487;-78
2023/02/02 06:20:57;;;;;;;12.40;5.70;;;;;;;1.45;100.00;97307.94;106759;1251;60434;-77
2023/02/02 06:23:23;;;;;;;9.00;5.00;;;;;;;1.47;100.00;97303.11;106551;1251;60344;-76
2023/02/02 06:25:50;;;;;;;10.50;5.10;;;;;;;1.49;100.00;97287.01;106330;1251;60471;-76
2023/02/02 06:28:16;;;;;;;13.00;4.30;;;;;;;1.50;100.00;97283.02;106116;1254;60592;-76
2023/02/02 06:30:43;;;;;;;15.00;6.70;;;;;;;1.53;100.00;97284.84;106257;1251;60306;-76
2023/02/02 06:33:09;;;;;;;13.50;4.60;;;;;;;1.54;100.00;97281.30;106303;1254;60450;-76
2023/02/02 06:35:35;;;;;;;9.30;4.30;;;;;;;1.55;100.00;97277.53;106231;1252;60465;-79
2023/02/02 06:38:02;;;;;;;13.10;3.60;;;;;;;1.56;100.00;97276.95;106233;1254;60280;-76
2023/02/02 06:40:28;;;;;;;7.50;3.20;;;;;;;1.57;100.00;97281.17;106296;1256;60469;-78
2023/02/02 06:42:58;;;;;;;11.70;4.50;;;;;;;1.57;100.00;97281.83;106285;1254;60596;-76
2023/02/02 06:45:25;;;;;;;9.30;4.10;;;;;;;1.59;100.00;97285.54;106297;1251;60435;-79
2023/02/02 06:47:52;;;;;;;14.00;3.80;;;;;;;1.60;100.00;97283.73;106315;1251;60296;-76
2023/02/02 06:50:18;;;;;;;8.90;4.80;;;;;;;1.61;100.00;97289.63;106353;1253;60395;-76
2023/02/02 06:52:48;;;;;;;16.10;6.30;;;;;;;1.62;100.00;97292.90;106179;1256;60429;-78
2023/02/02 06:55:15;;;;;;;14.50;5.70;;;;;;;1.63;100.00;97294.45;106283;1251;72606;-80
2023/02/02 06:57:42;;;;;;;13.40;5.50;;;;;;;1.63;100.00;97303.10;106394;1253;60447;-77
2023/02/02 07:00:09;;;;;;;15.70;5.90;;;;;;;1.63;100.00;97302.66;106013;1256;60435;-76
2023/02/02 07:02:35;;;;;;;14.60;4.60;;;;;;;1.63;100.00;97295.40;106264;1254;73678;-77
2023/02/02 07:05:02;;;;;;;11.10;4.60;;;;;;;1.62;100.00;97287.84;107227;1251;60439;-79
2023/02/02 07:07:32;;;;;;;10.00;5.10;;;;;;;1.61;100.00;97283.75;107329;1254;60257;-77
2023/02/02 07:09:59;;;;;;;10.30;4.30;;;;;;;1.58;100.00;97286.59;107948;1251;60401;-78
2023/02/02 07:12:25;;;;;;;11.60;3.80;;;;;;;1.54;100.00;97283.14;106523;1254;60626;-75
2023/02/02 07:14:53;;;;;;;10.90;4.20;;;;;;;1.52;100.00;97276.11;106527;1251;72672;-75
2023/02/02 07:17:19;;;;;;;10.40;5.60;;;;;;;1.51;100.00;97273.16;108969;1256;70961;-76
2023/02/02 07:19:45;;;;;;;9.70;5.90;;;;;;;1.54;100.00;97276.11;108572;1251;59587;-75
2023/02/02 07:22:13;;;;;;;10.30;5.10;;;;;;;1.57;100.00;97274.73;106195;1251;60094;-77
2023/02/02 07:24:39;;;;;;;8.00;3.70;;;;;;;1.59;100.00;97274.02;106590;1251;60739;-75
2023/02/02 07:27:06;;;;;;;11.40;4.50;;;;;;;1.61;100.00;97277.95;107835;1251;60354;-75
2023/02/02 07:29:32;;;;;;;9.40;4.10;;;;;;;1.68;100.00;97281.91;107485;1251;60329;-75
2023/02/02 07:31:58;;;;;;;8.90;3.30;;;;;;;1.69;100.00;97287.48;106679;1251;60421;-75
2023/02/02 07:34:25;;;;;;;5.40;3.00;;;;;;;1.71;100.00;97289.23;106726;1251;59990;-75
2023/02/02 07:36:51;;;;;;;11.30;4.70;;;;;;;1.73;100.00;97291.35;107042;1251;61401;-77
2023/02/02 07:39:18;;;;;;;5.10;2.90;;;;;;;1.68;100.00;97298.95;107072;1253;60523;-77
2023/02/02 07:41:44;;;;;;;8.00;4.30;;;;;;;1.65;100.00;97296.66;109452;1251;58270;-76
2023/02/02 07:44:14;;;;;;;6.80;4.30;;;;;;;1.62;100.00;97293.67;109423;1251;58182;-78
2023/02/02 07:46:42;;;;;;;10.50;3.00;;;;;;;1.58;100.00;97297.49;109278;1251;58174;-78
2023/02/02 07:49:15;;;;;;;6.30;4.50;;;;;;;1.55;100.00;97299.34;109408;1251;59068;-76
2023/02/02 07:51:42;;;;;;;8.10;4.90;;;;;;;1.52;100.00;97302.02;107421;1251;72565;-77
2023/02/02 07:54:08;;;;;;;8.20;5.20;;;;;;;1.53;100.00;97303.80;106540;1256;59305;-77
2023/02/02 07:56:36;;;;;;;8.70;4.20;;;;;;;1.50;100.00;97297.28;106865;1254;60342;-75
2023/02/02 07:59:03;;;;;;;11.40;4.80;;;;;;;1.42;100.00;97301.73;107237;1255;60453;-75
2023/02/02 08:01:29;;;;;;;8.40;4.50;;;;;;;1.34;100.00;97302.22;106391;1254;60438;-80
2023/02/02 08:03:59;;;;;;;22.20;8.80;;;;;;;1.30;100.00;97292.05;106727;1251;71632;-78
2023/02/02 08:06:27;;;;;;;12.20;6.00;;;;;;;1.27;100.00;97299.41;107000;1253;70878;-79
2023/02/02 08:08:53;;;;;;;8.10;4.00;;;;;;;1.32;100.00;97294.55;107876;1251;71726;-75
2023/02/02 08:11:20;;;;;;;13.40;5.10;;;;;;;1.36;100.00;97291.04;108732;1253;58226;-75
2023/02/02 08:13:48;;;;;;;9.70;4.30;;;;;;;1.41;100.00;97290.66;106614;1257;60408;-75
2023/02/02 08:16:14;;;;;;;6.80;3.30;;;;;;;1.41;100.00;97290.98;107163;1251;72673;-75
2023/02/02 08:18:42;;;;;;;9.80;3.50;;;;;;;1.42;100.00;97289.61;107913;1251;59044;-78
2023/02/02 08:21:08;;;;;;;6.60;3.70;;;;;;;1.46;100.00;97290.27;107150;1251;72541;-75
2023/02/02 08:23:36;;;;;;;8.60;4.90;;;;;;;1.48;100.00;97299.60;106727;1251;60449;-77
2023/02/02 08:26:22;;;;;;;8.40;4.60;;;;;;;1.49;100.00;97291.30;106799;1255;60426;-79
2023/02/02 08:28:56;;;;;;;12.70;6.60;;;;;;;1.52;100.00;97295.66;109052;1253;72537;-77
2023/02/02 08:31:34;;;;;;;11.50;6.90;;;;;;;1.54;100.00;97292.63;106702;1254;69931;-79
2023/02/02 08:34:00;;;;;;;11.50;6.00;;;;;;;1.58;100.00;97299.57;106539;1254;71571;-77
2023/02/02 08:36:28;;;;;;;8.60;4.20;;;;;;;1.59;100.00;97306.15;107699;1251;60526;-77
2023/02/02 08:38:54;;;;;;;7.80;5.20;;;;;;;1.63;100.00;97309.23;108920;1252;60413;-77
2023/02/02 08:41:22;;;;;;;22.30;7.50;;;;;;;1.64;100.00;97312.84;107125;1254;60453;-77
2023/02/02 08:43:48;;;;;;;18.40;7.00;;;;;;;1.65;100.00;97309.38;106864;1255;69920;-79
2023/02/02 08:46:16;;;;;;;11.20;5.60;;;;;;;1.64;100.00;97304.48;106840;1251;72482;-79
2023/02/02 08:48:42;;;;;;;9.30;4.50;;;;;;;1.61;100.00;97300.48;108026;1251;60267;-77
2023/02/02 08:51:10;;;;;;;12.10;5.40;;;;;;;1.58;100.00;97294.34;106623;1254;60466;-77
2023/02/02 08:53:36;;;;;;;9.00;4.70;;;;;;;1.56;100.00;97291.11;106321;1251;72951;-79
2023/02/02 08:56:11;;;;;;;25.10;9.20;;;;;;;1.55;100.00;97293.84;108128;1251;60418;-79
2023/02/02 08:58:37;;;;;;;9.90;6.10;;;;;;;1.55;100.00;97295.04;108469;1252;70752;-77
2023/02/02 09:01:07;;;;;;;16.60;7.40;;;;;;;1.55;100.00;97293.92;107356;1251;61502;-77
2023/02/02 09:03:34;;;;;;;21.60;7.80;;;;;;;1.58;100.00;97294.23;106422;1256;60494;-77
2023/02/02 09:06:05;;;;;;;6.60;3.10;;;;;;;1.58;100.00;97298.33;106863;1253;73663;-79
2023/02/02 09:08:33;;;;;;;11.00;4.70;;;;;;;1.60;100.00;97295.54;107287;1251;70239;-80
2023/02/02 09:11:10;;;;;;;15.70;7.10;;;;;;;1.58;100.00;97304.27;107069;1251;72560;-77
2023/02/02 09:13:37;;;;;;;8.60;5.20;;;;;;;1.58;100.00;97303.10;106296;1256;60423;-79
2023/02/02 09:16:04;;;;;;;9.30;3.70;;;;;;;1.59;100.00;97309.80;107572;1251;59974;-78
2023/02/02 09:18:31;;;;;;;19.70;6.00;;;;;;;1.61;100.00;97304.64;107525;1251;73988;-76
2023/02/02 09:20:58;;;;;;;11.70;5.90;;;;;;;1.62;100.00;97304.81;107562;1251;70892;-76
2023/02/02 09:23:25;;;;;;;6.70;4.60;;;;;;;1.62;100.00;97303.13;106478;1252;71409;-75
2023/02/02 09:25:52;;;;;;;10.40;4.80;;;;;;;1.63;100.00;97312.02;106513;1256;61227;-76
2023/02/02 09:28:18;;;;;;;8.90;5.00;;;;;;;1.64;100.00;97311.17;106682;1256;61231;-76
2023/02/02 09:30:45;;;;;;;13.70;7.90;;;;;;;1.66;100.00;97309.61;107330;1256;61272;-75
2023/02/02 09:33:11;;;;;;;9.40;4.70;;;;;;;1.67;100.00;97312.83;106439;1254;61148;-76
2023/02/02 09:35:38;;;;;;;13.40;5.80;;;;;;;1.70;100.00;97306.73;107404;1256;59679;-78
2023/02/02 09:38:04;;;;;;;14.70;7.10;;;;;;;1.71;100.00;97304.50;107324;1254;61240;-75
2023/02/02 09:40:31;;;;;;;12.20;5.40;;;;;;;1.75;100.00;97306.98;107010;1254;61466;-75
2023/02/02 09:43:27;;;;;;;8.10;4.60;;;;;;;1.81;100.00;97306.28;106687;1254;61218;-78
2023/02/02 09:46:04;;;;;;;24.40;12.70;;;;;;;1.89;100.00;97303.76;107086;1255;69047;-78
2023/02/02 09:48:36;;;;;;;37.40;13.90;;;;;;;1.93;100.00;97309.53;107892;1254;71461;-76
2023/02/02 09:51:05;;;;;;;12.40;4.60;;;;;;;2.00;100.00;97310.08;107078;1251;61262;-76
2023/02/02 09:53:37;;;;;;;10.50;4.30;;;;;;;2.00;100.00;97320.61;106366;1256;61213;-75
2023/02/02 09:56:05;;;;;;;9.90;5.70;;;;;;;2.03;100.00;97315.38;106584;1254;74062;-76
2023/02/02 09:58:39;;;;;;;56.90;22.60;;;;;;;2.03;100.00;97321.39;107096;1251;71099;-76
2023/02/02 10:01:09;;;;;;;52.30;18.70;;;;;;;2.05;100.00;97323.10;107308;1251;72583;-78
2023/02/02 10:03:46;;;;;;;30.60;14.50;;;;;;;2.07;100.00;97323.63;106569;1256;61249;-78
2023/02/02 10:06:33;;;;;;;35.80;14.90;;;;;;;2.12;100.00;97331.77;106761;1251;61135;-78
2023/02/02 10:09:09;;;;;;;51.30;21.20;;;;;;;2.14;100.00;97332.36;107645;1251;73615;-78
2023/02/02 10:12:07;;;;;;;63.20;26.70;;;;;;;2.14;100.00;97334.54;106524;1254;71451;-75
2023/02/02 10:14:44;;;;;;;23.80;11.00;;;;;;;2.14;100.00;97335.61;106468;1256;72528;-76
2023/02/02 10:17:20;;;;;;;44.50;16.90;;;;;;;2.13;100.00;97345.40;107823;1254;61102;-78
2023/02/02 10:19:47;;;;;;;43.20;15.40;;;;;;;2.11;100.00;97336.56;108131;1251;60576;-76
2023/02/02 10:22:18;;;;;;;50.00;15.40;;;;;;;2.10;100.00;97336.22;107508;1256;73940;-78
2023/02/02 10:24:45;;;;;;;48.70;15.80;;;;;;;2.10;100.00;97342.27;109281;1251;70971;-77
2023/02/02 10:27:13;;;;;;;49.40;17.00;;;;;;;2.11;100.00;97339.77;107252;1253;61326;-78
2023/02/02 10:29:52;;;;;;;25.20;11.60;;;;;;;2.08;100.00;97341.80;107818;1251;61276;-76
2023/02/02 10:32:26;;;;;;;59.40;18.20;;;;;;;2.03;100.00;97346.91;106453;1251;61340;-78
2023/02/02 10:34:55;;;;;;;34.10;13.40;;;;;;;2.02;100.00;97347.80;106781;1251;74521;-78
2023/02/02 10:37:26;;;;;;;33.20;14.30;;;;;;;2.02;100.00;97338.60;107030;1251;71102;-78
2023/02/02 10:40:13;;;;;;;22.00;9.60;;;;;;;2.02;100.00;97339.18;107204;1251;72594;-78
2023/02/02 10:45:51;;;;;;;40.00;19.60;;;;;;;2.11;100.00;97354.58;106273;1257;60342;-78
2023/02/02 10:48:31;;;;;;;21.30;9.70;;;;;;;2.11;100.00;97357.73;106489;1256;61231;-75
2023/02/02 10:50:58;;;;;;;33.50;12.30;;;;;;;2.14;100.00;97353.35;106941;1256;71166;-78
2023/02/02 10:53:27;;;;;;;13.00;5.80;;;;;;;2.17;100.00;97359.98;106304;1258;71466;-78
2023/02/02 10:56:10;;;;;;;17.20;8.00;;;;;;;2.16;100.00;97368.63;107719;1254;61238;-78
2023/02/02 10:58:43;;;;;;;24.80;9.60;;;;;;;2.13;100.00;97370.54;106988;1253;62235;-76
2023/02/02 11:01:10;;;;;;;20.20;9.60;;;;;;;2.11;100.00;97368.15;106641;1256;73536;-77
2023/02/02 11:03:37;;;;;;;20.00;7.90;;;;;;;2.11;100.00;97365.59;106518;1252;70905;-77
2023/02/02 11:08:59;;;;;;;21.80;8.10;;;;;;;2.12;100.00;97378.85;106804;1252;61224;-77
2023/02/02 11:11:31;;;;;;;19.70;7.20;;;;;;;2.11;100.00;97372.01;106418;1251;61261;-78
2023/02/02 11:14:10;;;;;;;8.00;4.10;;;;;;;2.10;100.00;97362.09;106201;1251;74514;-78
2023/02/02 11:16:37;;;;;;;9.60;3.90;;;;;;;2.09;100.00;97381.98;106833;1257;71016;-77
2023/02/02 11:19:16;;;;;;;9.30;4.90;;;;;;;2.07;100.00;97383.55;107122;1254;72539;-77
2023/02/02 11:21:47;;;;;;;13.50;5.90;;;;;;;2.14;100.00;97378.52;106755;1251;61265;-79
2023/02/02 11:24:21;;;;;;;8.10;4.10;;;;;;;2.21;100.00;97378.74;106480;1254;61212;-78
2023/02/02 11:26:50;;;;;;;9.50;4.60;;;;;;;2.29;100.00;97376.05;107386;1255;74480;-79
2023/02/02 11:29:27;;;;;;;9.30;3.80;;;;;;;2.36;100.00;97375.54;107814;1251;71602;-77
2023/02/02 11:31:54;;;;;;;10.80;4.90;;;;;;;2.48;100.00;97371.50;106652;1251;72476;-79
2023/02/02 11:34:22;;;;;;;8.40;3.10;;;;;;;2.60;100.00;97363.27;106382;1256;61774;-79
2023/02/02 11:37:11;;;;;;;9.30;4.60;;;;;;;2.69;100.00;97364.69;106876;1258;61116;-79
2023/02/02 11:39:39;;;;;;;31.90;18.10;;;;;;;2.77;100.00;97365.30;107765;1251;73447;-77
2023/02/02 11:42:11;;;;;;;7.90;4.20;;;;;;;2.78;100.00;97361.35;107546;1256;70747;-79
2023/02/02 11:44:38;;;;;;;13.60;5.70;;;;;;;2.83;100.00;97367.95;107118;1256;71503;-79